Time;durP1;ratioP1;P1;durP2;ratioP2;P2;SDS_P1;SDS_P2;PMS_P1;PMS_P2;Temp;Humidity;BMP_temperature;BMP_pressure;BME280_temperature;BME280_humidity;BME280_pressure;Samples;Min_cycle;Max_cycle;Signal;HPM_P1;HPM_P2
2023/06/03 00:01:20;;;;;;;3.00;1.90;;;14.00;99.90;;;;;;4994371;28;20465;-70
2023/06/03 00:03:49;;;;;;;4.15;1.60;;;13.90;99.90;;;;;;4992270;28;20530;-69
2023/06/03 00:06:15;;;;;;;9.32;2.67;;;13.90;99.90;;;;;;4996001;28;20049;-70
2023/06/03 00:08:42;;;;;;;6.82;1.77;;;14.00;99.90;;;;;;4994685;28;20507;-70
2023/06/03 00:11:08;;;;;;;2.70;1.60;;;14.00;99.90;;;;;;4994122;28;20029;-70
2023/06/03 00:13:34;;;;;;;4.90;1.83;;;13.90;99.90;;;;;;4994693;28;20112;-69
2023/06/03 00:16:00;;;;;;;7.72;2.78;;;13.90;99.90;;;;;;4995872;28;20057;-69
2023/06/03 00:18:26;;;;;;;4.72;1.85;;;13.90;99.90;;;;;;4992645;28;20582;-69
2023/06/03 00:20:55;;;;;;;7.63;2.47;;;13.90;99.90;;;;;;4995658;28;20614;-69
2023/06/03 00:23:21;;;;;;;7.88;1.98;;;13.80;99.90;;;;;;4995068;28;20023;-68
2023/06/03 00:25:46;;;;;;;2.25;1.80;;;13.80;99.90;;;;;;4994682;28;20076;-68
2023/06/03 00:28:12;;;;;;;4.47;1.85;;;13.80;99.90;;;;;;4995605;28;20109;-69
2023/06/03 00:30:37;;;;;;;5.25;2.58;;;13.70;99.90;;;;;;4995635;28;20086;-69
2023/06/03 00:33:04;;;;;;;3.08;2.10;;;13.70;99.90;;;;;;4994648;28;20030;-69
2023/06/03 00:35:30;;;;;;;6.35;2.67;;;13.70;99.90;;;;;;4994450;28;20030;-70
2023/06/03 00:37:55;;;;;;;3.35;1.90;;;13.70;99.90;;;;;;4994219;28;20034;-70
2023/06/03 00:40:21;;;;;;;3.33;2.20;;;13.70;99.90;;;;;;4994840;28;20022;-70
2023/06/03 00:42:47;;;;;;;3.92;1.75;;;13.70;99.90;;;;;;4994458;28;20514;-70
2023/06/03 00:45:12;;;;;;;6.00;2.63;;;13.70;99.90;;;;;;4993360;28;20023;-70
2023/06/03 00:47:38;;;;;;;3.83;2.53;;;13.70;99.90;;;;;;4993637;28;20034;-70
2023/06/03 00:50:06;;;;;;;4.45;2.55;;;13.70;99.90;;;;;;4995343;28;20022;-71
2023/06/03 00:52:32;;;;;;;;;;;13.70;99.90;;;;;;4994929;28;20034;-70
2023/06/03 00:54:58;;;;;;;7.00;2.22;;;13.70;99.90;;;;;;4995243;28;20025;-70
2023/06/03 00:57:26;;;;;;;2.67;1.65;;;13.60;99.90;;;;;;4993122;28;20056;-70
2023/06/03 00:59:52;;;;;;;3.13;1.88;;;13.70;99.90;;;;;;4995008;28;20037;-70
2023/06/03 01:02:19;;;;;;;3.00;1.70;;;13.70;99.90;;;;;;4993859;28;20022;-69
2023/06/03 01:04:46;;;;;;;5.47;1.85;;;13.70;99.90;;;;;;4994475;28;20038;-70
2023/06/03 01:07:27;;;;;;;4.05;2.03;;;13.70;99.90;;;;;;5009242;28;20022;-70
2023/06/03 01:10:01;;;;;;;2.75;2.17;;;13.80;99.90;;;;;;4994829;28;20487;-71
2023/06/03 01:12:39;;;;;;;5.15;2.10;;;13.80;99.90;;;;;;4994071;28;20483;-70
2023/06/03 01:15:12;;;;;;;4.45;2.05;;;13.80;99.90;;;;;;4995145;28;20109;-70
2023/06/03 01:17:45;;;;;;;4.68;1.80;;;13.70;99.90;;;;;;4993934;28;20081;-70
2023/06/03 01:20:12;;;;;;;3.28;1.77;;;13.80;99.90;;;;;;4994779;28;20483;-69
2023/06/03 01:22:40;;;;;;;4.20;2.30;;;13.70;99.90;;;;;;4993571;28;20029;-69
2023/06/03 01:25:08;;;;;;;2.78;2.00;;;13.70;99.90;;;;;;4994227;28;20277;-70
2023/06/03 01:27:37;;;;;;;2.28;1.65;;;13.70;99.90;;;;;;4992493;28;20022;-69
2023/06/03 01:30:06;;;;;;;7.70;2.35;;;13.60;99.90;;;;;;4992812;28;20435;-70
2023/06/03 01:32:32;;;;;;;3.58;2.42;;;13.60;99.90;;;;;;4993650;28;20114;-70
2023/06/03 01:34:58;;;;;;;3.80;1.95;;;13.50;99.90;;;;;;4996831;28;20066;-70
2023/06/03 01:37:26;;;;;;;2.35;1.70;;;13.50;99.90;;;;;;4993313;28;20522;-69
2023/06/03 01:39:54;;;;;;;4.47;2.17;;;13.50;99.90;;;;;;4994220;28;20081;-70
2023/06/03 01:42:20;;;;;;;1.17;0.80;;;13.50;99.90;;;;;;4991848;28;20047;-69
2023/06/03 01:44:46;;;;;;;3.95;2.00;;;13.50;99.90;;;;;;4992826;28;20034;-69
2023/06/03 01:47:12;;;;;;;3.10;1.67;;;13.50;99.90;;;;;;4993224;28;20026;-69
2023/06/03 01:49:38;;;;;;;3.40;1.98;;;13.40;99.90;;;;;;4994094;28;20499;-70
2023/06/03 01:52:04;;;;;;;6.15;2.08;;;13.40;99.90;;;;;;4997938;28;20070;-70
2023/06/03 01:54:30;;;;;;;3.03;1.73;;;13.40;99.90;;;;;;4980063;28;20065;-70
2023/06/03 01:56:57;;;;;;;6.13;2.58;;;13.40;99.90;;;;;;4992571;28;20030;-69
2023/06/03 01:59:24;;;;;;;3.85;1.98;;;13.30;99.90;;;;;;4993836;28;20045;-69
2023/06/03 02:01:55;;;;;;;5.53;2.28;;;13.30;99.90;;;;;;4992945;28;20030;-70
2023/06/03 02:04:21;;;;;;;2.50;1.63;;;13.30;99.90;;;;;;4993892;28;20082;-70
2023/06/03 02:07:01;;;;;;;5.45;1.77;;;13.30;99.90;;;;;;4992845;28;20035;-70
2023/06/03 02:09:28;;;;;;;8.45;2.50;;;13.20;99.90;;;;;;4992921;28;20034;-70
2023/06/03 02:11:59;;;;;;;4.25;2.13;;;13.20;99.90;;;;;;4993783;28;20042;-69
2023/06/03 02:14:26;;;;;;;3.45;2.17;;;13.20;99.90;;;;;;4992401;28;20080;-70
2023/06/03 02:16:53;;;;;;;10.00;2.30;;;13.20;99.90;;;;;;4992773;28;20038;-71
2023/06/03 02:19:26;;;;;;;5.07;2.08;;;13.20;99.90;;;;;;4992072;28;20103;-71
2023/06/03 02:21:56;;;;;;;7.70;2.60;;;13.10;99.90;;;;;;4990892;28;20507;-70
2023/06/03 02:24:22;;;;;;;4.05;2.50;;;13.10;99.90;;;;;;5007355;28;20041;-70
2023/06/03 02:26:52;;;;;;;5.85;2.35;;;13.10;99.90;;;;;;4993682;28;20030;-71
2023/06/03 02:29:27;;;;;;;6.13;2.28;;;13.10;99.90;;;;;;4993610;28;20375;-69
2023/06/03 02:31:58;;;;;;;6.40;2.20;;;13.00;99.90;;;;;;4992117;28;20554;-69
2023/06/03 02:34:23;;;;;;;4.30;2.38;;;13.00;99.90;;;;;;4993570;28;20044;-72
2023/06/03 02:36:49;;;;;;;5.18;2.25;;;13.00;99.90;;;;;;4993486;28;20124;-69
2023/06/03 02:39:16;;;;;;;2.63;2.15;;;13.00;99.90;;;;;;4993575;28;20165;-70
2023/06/03 02:41:43;;;;;;;6.55;3.15;;;13.00;99.90;;;;;;4992529;28;20097;-69
2023/06/03 02:44:12;;;;;;;7.33;2.73;;;12.90;99.90;;;;;;5007241;28;20130;-70
2023/06/03 02:46:37;;;;;;;6.47;2.78;;;13.00;99.90;;;;;;4992694;28;20030;-71
2023/06/03 02:49:05;;;;;;;3.55;2.35;;;12.90;99.90;;;;;;4992580;28;20027;-69
2023/06/03 02:51:31;;;;;;;;;;;12.90;99.90;;;;;;5008644;28;20117;-69
2023/06/03 02:53:56;;;;;;;3.28;1.90;;;12.90;99.90;;;;;;4992215;28;19949;-68
2023/06/03 02:56:23;;;;;;;3.13;2.40;;;12.90;99.90;;;;;;4990563;28;20523;-69
2023/06/03 02:58:50;;;;;;;4.97;2.40;;;12.90;99.90;;;;;;4992660;28;20039;-69
2023/06/03 03:01:16;;;;;;;2.33;2.10;;;12.90;99.90;;;;;;4992244;28;20034;-69
2023/06/03 03:03:42;;;;;;;2.75;2.03;;;12.90;99.90;;;;;;4993257;28;20038;-69
2023/06/03 03:06:11;;;;;;;2.28;2.08;;;12.90;99.90;;;;;;4992633;28;20026;-69
2023/06/03 03:08:37;;;;;;;4.38;2.05;;;12.90;99.90;;;;;;4993226;28;20023;-69
2023/06/03 03:11:03;;;;;;;5.25;2.33;;;12.90;99.90;;;;;;4993428;28;20152;-69
2023/06/03 03:13:30;;;;;;;2.13;1.77;;;12.80;99.90;;;;;;4995329;28;20117;-69
2023/06/03 03:15:55;;;;;;;5.55;2.95;;;12.80;99.90;;;;;;4995898;28;20026;-69
2023/06/03 03:18:22;;;;;;;4.55;2.30;;;12.70;99.90;;;;;;4995627;28;20026;-70
2023/06/03 03:20:47;;;;;;;3.50;2.08;;;12.70;99.90;;;;;;4996036;28;20031;-68
2023/06/03 03:23:13;;;;;;;4.03;1.67;;;12.70;99.90;;;;;;4996855;28;20041;-68
2023/06/03 03:25:40;;;;;;;9.00;2.00;;;12.70;99.90;;;;;;4995903;28;20471;-68
2023/06/03 03:28:06;;;;;;;2.40;2.00;;;12.70;99.90;;;;;;4996724;28;20033;-69
2023/06/03 03:30:32;;;;;;;7.45;2.10;;;12.60;99.90;;;;;;4995797;28;20052;-69
2023/06/03 03:32:59;;;;;;;4.35;2.00;;;12.60;99.90;;;;;;4995828;28;20062;-68
2023/06/03 03:35:25;;;;;;;4.65;2.28;;;12.60;99.90;;;;;;4996157;28;20356;-67
2023/06/03 03:38:03;;;;;;;5.07;2.55;;;12.50;99.90;;;;;;4996802;28;20022;-69
2023/06/03 03:40:31;;;;;;;7.85;2.72;;;12.50;99.90;;;;;;4995678;28;20022;-68
2023/06/03 03:42:58;;;;;;;;;;;12.50;99.90;;;;;;4996857;28;20031;-69
2023/06/03 03:45:31;;;;;;;3.90;1.70;;;12.50;99.90;;;;;;4995464;28;20284;-68
2023/06/03 03:48:11;;;;;;;5.80;2.30;;;12.50;99.90;;;;;;4995659;28;20022;-68
2023/06/03 03:50:48;;;;;;;2.42;2.17;;;12.40;99.90;;;;;;4994876;28;20029;-69
2023/06/03 03:53:26;;;;;;;2.30;2.10;;;12.40;99.90;;;;;;4996434;28;20035;-69
2023/06/03 03:55:54;;;;;;;3.53;1.73;;;12.40;99.90;;;;;;4996034;28;20081;-68
2023/06/03 03:58:27;;;;;;;2.08;1.73;;;12.40;99.90;;;;;;4995354;28;20038;-69
2023/06/03 04:01:00;;;;;;;5.38;2.15;;;12.40;99.90;;;;;;4989057;28;20031;-68
2023/06/03 04:03:29;;;;;;;2.83;2.00;;;12.40;99.90;;;;;;4976705;28;20058;-69
2023/06/03 04:05:55;;;;;;;2.00;1.70;;;12.40;99.90;;;;;;4980522;28;20022;-68
2023/06/03 04:08:40;;;;;;;3.00;2.70;;;12.40;99.90;;;;;;4996005;28;20022;-69
2023/06/03 04:11:17;;;;;;;2.45;1.90;;;12.40;99.90;;;;;;4995067;28;20113;-69
2023/06/03 04:13:42;;;;;;;3.67;1.70;;;12.40;99.90;;;;;;4995665;28;20513;-68
2023/06/03 04:16:31;;;;;;;2.22;2.00;;;12.40;99.90;;;;;;4995059;28;20054;-70
2023/06/03 04:18:58;;;;;;;2.55;1.60;;;12.40;99.90;;;;;;4995296;28;20449;-70
2023/06/03 04:21:23;;;;;;;4.60;1.75;;;12.40;99.90;;;;;;4995200;28;20092;-69
2023/06/03 04:23:49;;;;;;;7.30;1.80;;;12.40;99.90;;;;;;4994435;28;20031;-70
2023/06/03 04:26:15;;;;;;;1.75;1.58;;;12.40;99.90;;;;;;4994927;28;20287;-68
2023/06/03 04:28:41;;;;;;;4.90;1.52;;;12.40;99.90;;;;;;4994899;28;20037;-69
2023/06/03 04:31:07;;;;;;;3.53;1.60;;;12.40;99.90;;;;;;4994508;28;20022;-69
2023/06/03 04:33:33;;;;;;;3.60;1.92;;;12.50;99.90;;;;;;4995546;28;20431;-68
2023/06/03 04:35:59;;;;;;;7.30;2.17;;;12.40;99.90;;;;;;4994633;28;20026;-69
2023/06/03 04:38:25;;;;;;;2.13;1.92;;;12.40;99.90;;;;;;4993805;28;20030;-69
2023/06/03 04:40:51;;;;;;;2.35;1.70;;;12.50;99.90;;;;;;4995185;28;20077;-69
2023/06/03 04:43:18;;;;;;;2.08;1.58;;;12.50;99.90;;;;;;4995384;28;20033;-69
2023/06/03 04:45:45;;;;;;;2.67;1.95;;;12.60;99.90;;;;;;4994442;28;20030;-69
2023/06/03 04:48:13;;;;;;;3.97;1.80;;;12.60;99.90;;;;;;4993077;28;20034;-69
2023/06/03 04:50:44;;;;;;;3.20;1.98;;;12.60;99.90;;;;;;4995172;28;20034;-69
2023/06/03 04:53:11;;;;;;;1.45;1.17;;;12.60;99.90;;;;;;4996672;28;20510;-69
2023/06/03 04:55:37;;;;;;;5.87;1.80;;;12.70;99.90;;;;;;4980474;28;20030;-69
2023/06/03 04:58:05;;;;;;;7.50;1.63;;;12.70;99.90;;;;;;4978418;28;20038;-69
2023/06/03 05:00:33;;;;;;;4.13;1.75;;;12.80;99.90;;;;;;4995137;28;20482;-70
2023/06/03 05:03:01;;;;;;;;;;;12.80;99.90;;;;;;4995474;28;20050;-70
2023/06/03 05:05:27;;;;;;;2.13;1.50;;;12.80;99.90;;;;;;4995033;28;19910;-69
2023/06/03 05:07:53;;;;;;;2.45;1.90;;;12.90;99.90;;;;;;4995442;28;20105;-69
2023/06/03 05:10:19;;;;;;;2.97;1.90;;;12.90;99.90;;;;;;4994307;28;20015;-69
2023/06/03 05:12:45;;;;;;;13.25;1.55;;;12.90;99.90;;;;;;4994912;28;20402;-70
2023/06/03 05:15:12;;;;;;;3.00;1.63;;;13.00;99.90;;;;;;4994751;28;20022;-70
2023/06/03 05:17:40;;;;;;;6.82;1.73;;;13.00;99.90;;;;;;4994701;28;20042;-70
2023/06/03 05:20:08;;;;;;;1.42;1.17;;;13.10;99.90;;;;;;4994598;28;20093;-70
2023/06/03 05:22:34;;;;;;;2.15;1.63;;;13.10;99.90;;;;;;4994530;28;20034;-70
2023/06/03 05:25:00;;;;;;;6.95;1.60;;;13.10;99.90;;;;;;4994614;28;20038;-71
2023/06/03 05:27:26;;;;;;;4.50;1.80;;;13.20;99.90;;;;;;4993986;28;20026;-70
2023/06/03 05:29:52;;;;;;;2.35;1.25;;;13.30;99.90;;;;;;4993236;28;20034;-71
2023/06/03 05:32:17;;;;;;;4.07;1.33;;;13.40;99.90;;;;;;4994441;28;20027;-68
2023/06/03 05:34:43;;;;;;;1.45;1.35;;;13.50;99.90;;;;;;4994047;28;20077;-69
2023/06/03 05:37:08;;;;;;;1.33;1.23;;;13.60;99.90;;;;;;4994354;28;20499;-68
2023/06/03 05:39:35;;;;;;;2.83;1.52;;;13.60;99.90;;;;;;4994315;28;20113;-68
2023/06/03 05:42:01;;;;;;;1.75;1.58;;;13.70;99.90;;;;;;4994019;28;20054;-69
2023/06/03 05:44:26;;;;;;;2.20;1.40;;;13.80;99.90;;;;;;4993806;28;20368;-69
2023/06/03 05:46:52;;;;;;;1.85;1.27;;;13.80;99.90;;;;;;4990618;28;20051;-69
2023/06/03 05:49:19;;;;;;;5.75;1.40;;;13.90;99.90;;;;;;4974735;28;20392;-68
2023/06/03 05:51:45;;;;;;;3.00;1.45;;;13.90;99.90;;;;;;4973408;28;20093;-68
2023/06/03 05:54:10;;;;;;;1.33;1.23;;;14.00;99.90;;;;;;4974529;28;20045;-70
2023/06/03 05:56:36;;;;;;;7.05;1.40;;;14.20;99.90;;;;;;4974592;28;20024;-69
2023/06/03 05:59:01;;;;;;;2.50;1.10;;;14.30;99.90;;;;;;4974439;28;20022;-69
2023/06/03 06:01:28;;;;;;;3.50;1.27;;;14.50;99.90;;;;;;4988082;28;20105;-69
2023/06/03 06:03:54;;;;;;;3.30;0.70;;;14.90;99.90;;;;;;4993855;28;20029;-69
2023/06/03 06:06:20;;;;;;;1.65;0.93;;;15.20;99.90;;;;;;4993934;28;20479;-69
2023/06/03 06:08:46;;;;;;;2.45;1.02;;;15.40;99.90;;;;;;4993025;28;20030;-69
2023/06/03 06:11:11;;;;;;;3.80;1.00;;;15.50;99.90;;;;;;4993070;28;20076;-70
2023/06/03 06:13:37;;;;;;;2.90;1.20;;;15.70;99.90;;;;;;4992821;28;20030;-69
2023/06/03 06:16:04;;;;;;;1.20;1.02;;;15.80;99.90;;;;;;4992222;28;20037;-70
2023/06/03 06:18:30;;;;;;;1.95;1.00;;;15.80;99.90;;;;;;4980396;28;20025;-72
2023/06/03 06:20:57;;;;;;;1.38;0.88;;;16.10;99.90;;;;;;4993665;28;20475;-70
2023/06/03 06:23:23;;;;;;;1.00;0.85;;;16.90;99.90;;;;;;4992716;28;20391;-70
2023/06/03 06:25:50;;;;;;;7.82;0.60;;;17.70;99.90;;;;;;4993641;28;20123;-70
2023/06/03 06:28:18;;;;;;;3.15;1.40;;;18.00;99.90;;;;;;4992750;28;20029;-69
2023/06/03 06:30:44;;;;;;;0.77;0.77;;;17.70;99.90;;;;;;4990861;28;20027;-69
2023/06/03 06:33:16;;;;;;;1.33;0.82;;;17.50;99.90;;;;;;4993502;28;20037;-68
2023/06/03 06:35:43;;;;;;;4.35;1.33;;;17.40;99.90;;;;;;4992566;28;20479;-70
2023/06/03 06:38:10;;;;;;;1.20;0.70;;;17.50;99.90;;;;;;4993582;28;20034;-68
2023/06/03 06:40:37;;;;;;;4.23;1.50;;;17.50;99.90;;;;;;4993209;28;20038;-69
2023/06/03 06:43:03;;;;;;;1.98;0.77;;;17.70;99.90;;;;;;4992575;28;20491;-68
2023/06/03 06:45:32;;;;;;;2.47;0.73;;;17.70;99.90;;;;;;4993664;28;20387;-68
2023/06/03 06:48:09;;;;;;;3.17;0.95;;;17.90;99.90;;;;;;4996627;28;20438;-68
2023/06/03 06:50:54;;;;;;;2.05;1.35;;;18.20;99.90;;;;;;4996720;28;20269;-69
2023/06/03 06:53:22;;;;;;;4.45;1.08;;;18.40;99.90;;;;;;4997356;28;20383;-68
2023/06/03 06:55:53;;;;;;;3.95;1.23;;;18.90;99.90;;;;;;4995962;28;20018;-68
2023/06/03 06:58:20;;;;;;;1.42;1.13;;;19.60;99.90;;;;;;4996329;28;20026;-69
2023/06/03 07:00:47;;;;;;;5.13;1.37;;;20.30;99.50;;;;;;4996525;28;20032;-67
2023/06/03 07:03:19;;;;;;;8.27;1.70;;;21.20;98.50;;;;;;4996480;28;20848;-69
2023/06/03 07:05:46;;;;;;;2.13;1.27;;;22.90;97.10;;;;;;4996366;28;20019;-69
2023/06/03 07:08:12;;;;;;;1.17;0.98;;;24.40;96.20;;;;;;5011808;28;20456;-69
2023/06/03 07:10:38;;;;;;;2.55;1.38;;;25.50;95.20;;;;;;4996118;28;20053;-69
2023/06/03 07:13:06;;;;;;;2.10;1.07;;;25.90;93.80;;;;;;4997099;28;20037;-70
2023/06/03 07:15:32;;;;;;;3.28;1.02;;;26.30;93.30;;;;;;4996376;28;20084;-70
2023/06/03 07:17:58;;;;;;;2.67;1.30;;;26.40;92.80;;;;;;4995949;28;20550;-70
2023/06/03 07:20:29;;;;;;;0.80;0.80;;;26.00;92.20;;;;;;4996891;28;20491;-70
2023/06/03 07:22:55;;;;;;;2.45;0.90;;;26.00;92.60;;;;;;4997897;28;20062;-71
2023/06/03 07:25:43;;;;;;;3.75;1.38;;;26.30;92.30;;;;;;4991457;28;20070;-71
2023/06/03 07:28:15;;;;;;;1.15;0.90;;;26.50;91.80;;;;;;4995166;28;20142;-70
2023/06/03 07:30:42;;;;;;;3.15;1.30;;;26.10;91.90;;;;;;4996719;28;20026;-69
2023/06/03 07:33:27;;;;;;;5.20;1.70;;;26.00;91.60;;;;;;4996629;28;20499;-71
2023/06/03 07:35:57;;;;;;;1.17;1.08;;;25.50;91.60;;;;;;4996653;28;20015;-70
2023/06/03 07:38:56;;;;;;;1.80;1.13;;;25.10;92.00;;;;;;4996581;28;20029;-69
2023/06/03 07:41:38;;;;;;;4.03;1.30;;;24.60;92.10;;;;;;4996144;28;20043;-69
2023/06/03 07:44:06;;;;;;;2.22;1.30;;;23.90;92.50;;;;;;4996068;28;20077;-70
2023/06/03 07:46:55;;;;;;;1.67;1.15;;;23.10;92.20;;;;;;4996405;28;20468;-70
2023/06/03 07:49:22;;;;;;;1.50;1.40;;;22.00;92.70;;;;;;4996768;28;20053;-71
2023/06/03 07:51:49;;;;;;;1.40;1.17;;;21.70;92.90;;;;;;4996245;28;20105;-70
2023/06/03 07:54:15;;;;;;;2.60;1.42;;;21.40;93.50;;;;;;4995956;28;20100;-70
2023/06/03 07:56:42;;;;;;;3.33;1.30;;;21.60;93.80;;;;;;4995913;28;20061;-69
2023/06/03 07:59:15;;;;;;;6.80;1.33;;;21.80;94.00;;;;;;4995791;28;20149;-68
2023/06/03 08:01:42;;;;;;;1.13;1.00;;;22.30;93.00;;;;;;4996311;28;20037;-69
2023/06/03 08:04:17;;;;;;;;;;;22.30;91.90;;;;;;4993801;28;20061;-70
2023/06/03 08:06:44;;;;;;;3.53;1.52;;;21.80;92.00;;;;;;4996091;28;19920;-69
2023/06/03 08:09:18;;;;;;;5.97;1.30;;;22.00;92.40;;;;;;4995174;28;20092;-70
2023/06/03 08:11:44;;;;;;;1.67;1.08;;;22.00;92.10;;;;;;4995048;28;20402;-69
2023/06/03 08:14:11;;;;;;;1.90;1.20;;;22.30;92.20;;;;;;4995879;28;20023;-69
2023/06/03 08:16:36;;;;;;;4.82;1.23;;;22.60;91.80;;;;;;4995090;28;20034;-70
2023/06/03 08:19:03;;;;;;;1.15;1.02;;;22.80;91.00;;;;;;4994934;28;20038;-68
2023/06/03 08:24:05;;;;;;;1.10;1.00;;;22.50;91.10;;;;;;5638623;23;20057;-70
2023/06/03 08:26:30;;;;;;;1.45;1.00;;;22.40;91.40;;;;;;5035355;28;20092;-70
2023/06/03 08:28:56;;;;;;;2.30;0.98;;;22.90;91.30;;;;;;5035163;28;20104;-70
2023/06/03 08:31:22;;;;;;;3.20;1.63;;;23.00;90.50;;;;;;5034982;28;20030;-70
2023/06/03 08:33:47;;;;;;;1.90;0.90;;;23.10;90.60;;;;;;5035103;28;20029;-69
2023/06/03 08:36:13;;;;;;;1.10;0.85;;;23.30;90.40;;;;;;5034922;28;20033;-70
2023/06/03 08:38:40;;;;;;;11.18;1.60;;;23.60;89.70;;;;;;5034946;28;20465;-68
2023/06/03 08:41:06;;;;;;;1.42;1.30;;;24.40;87.50;;;;;;5035116;28;20025;-71
2023/06/03 08:43:48;;;;;;;1.67;0.80;;;24.80;88.80;;;;;;5034752;28;20032;-70
2023/06/03 08:46:26;;;;;;;2.88;1.08;;;25.40;88.50;;;;;;5034664;28;20060;-71
2023/06/03 08:49:04;;;;;;;1.15;0.90;;;25.40;88.90;;;;;;5034740;28;20029;-70
2023/06/03 08:51:36;;;;;;;2.10;1.13;;;25.10;87.80;;;;;;5032843;28;20406;-70
2023/06/03 08:54:08;;;;;;;0.70;0.70;;;25.10;88.10;;;;;;5034772;28;20018;-71
2023/06/03 08:56:45;;;;;;;1.48;0.60;;;25.50;87.20;;;;;;5034530;28;20049;-70
2023/06/03 08:59:12;;;;;;;;;;;25.50;86.60;;;;;;5035115;28;20449;-71
2023/06/03 09:01:37;;;;;;;;;;;25.50;85.80;;;;;;5050197;28;20242;-71
2023/06/03 09:04:04;;;;;;;1.97;1.17;;;25.20;85.90;;;;;;5032276;28;19959;-70
2023/06/03 09:06:30;;;;;;;0.70;0.70;;;24.80;86.50;;;;;;5023410;28;20029;-70
2023/06/03 09:08:57;;;;;;;1.13;0.77;;;25.00;87.10;;;;;;5023909;28;20052;-70
2023/06/03 09:11:25;;;;;;;1.42;1.05;;;24.70;86.20;;;;;;5014404;28;20048;-71
2023/06/03 09:13:52;;;;;;;4.45;1.00;;;24.90;86.30;;;;;;5031017;28;20053;-70
2023/06/03 09:16:19;;;;;;;1.80;1.10;;;25.10;86.20;;;;;;5032883;28;20068;-70
2023/06/03 09:18:45;;;;;;;0.60;0.60;;;24.90;85.20;;;;;;5032887;28;20026;-70
2023/06/03 09:21:10;;;;;;;0.90;0.50;;;25.20;87.60;;;;;;5034057;28;20028;-69
2023/06/03 09:23:41;;;;;;;3.33;0.68;;;24.50;86.40;;;;;;5033645;28;20038;-70
2023/06/03 09:26:07;;;;;;;0.90;0.80;;;23.70;86.60;;;;;;5012151;28;20026;-69
2023/06/03 09:28:36;;;;;;;1.17;0.50;;;23.30;87.20;;;;;;5014438;28;20029;-69
2023/06/03 09:31:03;;;;;;;1.77;0.85;;;23.10;89.10;;;;;;5013853;28;20025;-70
2023/06/03 09:33:30;;;;;;;2.97;1.33;;;22.70;88.40;;;;;;4999208;28;20023;-69
2023/06/03 09:36:12;;;;;;;1.20;1.10;;;22.50;88.70;;;;;;5011773;28;20033;-70
2023/06/03 09:39:23;;;;;;;15.02;1.63;;;22.40;89.10;;;;;;5009942;28;20045;-69
2023/06/03 09:41:50;;;;;;;1.13;0.65;;;22.10;88.90;;;;;;5009659;28;20410;-69
2023/06/03 09:44:16;;;;;;;;;;;22.30;89.10;;;;;;5014371;28;20053;-69
2023/06/03 09:46:50;;;;;;;7.78;1.58;;;22.60;89.30;;;;;;5013782;28;19909;-70
2023/06/03 09:49:18;;;;;;;1.33;0.80;;;22.70;90.00;;;;;;5013974;28;20022;-70
2023/06/03 09:51:45;;;;;;;1.70;0.70;;;22.80;90.10;;;;;;5012022;28;20033;-71
2023/06/03 09:54:14;;;;;;;6.35;0.90;;;22.80;89.70;;;;;;5013612;28;20038;-70
2023/06/03 09:56:40;;;;;;;1.58;0.77;;;22.50;90.10;;;;;;5012587;28;20014;-69
2023/06/03 09:59:15;;;;;;;13.38;1.17;;;22.40;89.80;;;;;;5012920;28;20026;-69
2023/06/03 10:01:42;;;;;;;0.65;0.65;;;22.20;88.70;;;;;;5013712;28;20062;-69
2023/06/03 10:04:08;;;;;;;1.75;0.50;;;22.30;88.60;;;;;;5013687;28;20394;-69
2023/06/03 10:06:38;;;;;;;1.88;0.70;;;22.50;88.40;;;;;;5010944;28;20041;-69
2023/06/03 10:09:25;;;;;;;1.27;0.75;;;22.60;88.40;;;;;;5012788;28;20033;-70
2023/06/03 10:11:52;;;;;;;0.52;0.47;;;22.70;88.60;;;;;;5009823;28;20036;-69
2023/06/03 10:14:25;;;;;;;1.55;0.73;;;22.70;88.30;;;;;;5012102;28;20029;-69
2023/06/03 10:17:07;;;;;;;1.15;0.70;;;22.90;89.10;;;;;;4996623;28;20037;-71
2023/06/03 10:19:41;;;;;;;2.80;0.68;;;23.10;87.50;;;;;;4992882;28;20038;-73
2023/06/03 10:22:12;;;;;;;4.88;0.60;;;23.10;88.60;;;;;;4994900;28;20030;-73
2023/06/03 10:24:40;;;;;;;5.35;0.90;;;23.40;88.10;;;;;;5007056;28;20069;-69
2023/06/03 10:27:06;;;;;;;0.95;0.88;;;23.70;87.30;;;;;;5013167;28;20040;-70
2023/06/03 10:29:33;;;;;;;0.70;0.60;;;23.60;87.00;;;;;;5014804;28;20060;-70
2023/06/03 10:32:03;;;;;;;1.75;0.70;;;23.70;86.50;;;;;;5004539;28;20036;-70
2023/06/03 10:34:30;;;;;;;2.33;0.80;;;23.90;87.30;;;;;;5011386;28;20037;-69
2023/06/03 10:36:57;;;;;;;1.95;0.57;;;23.90;85.10;;;;;;5012372;28;20109;-71
2023/06/03 10:39:27;;;;;;;3.00;0.65;;;23.70;85.30;;;;;;5010722;28;20033;-70
2023/06/03 10:42:01;;;;;;;3.50;1.15;;;23.80;85.30;;;;;;5012516;28;20022;-70
2023/06/03 10:44:28;;;;;;;2.80;0.90;;;24.10;84.30;;;;;;5013092;28;20062;-71
2023/06/03 10:47:09;;;;;;;4.47;0.57;;;24.00;86.40;;;;;;5012567;28;20092;-70
2023/06/03 10:49:39;;;;;;;2.90;0.55;;;23.30;84.90;;;;;;5010214;28;20041;-70
2023/06/03 10:52:20;;;;;;;2.00;0.60;;;22.90;86.90;;;;;;5009196;28;20482;-68
2023/06/03 10:55:16;;;;;;;1.38;0.90;;;22.60;86.40;;;;;;5016223;28;20033;-69
2023/06/03 10:57:46;;;;;;;3.33;0.98;;;22.40;87.70;;;;;;5006487;28;20118;-69
2023/06/03 11:00:12;;;;;;;3.15;0.80;;;22.40;87.40;;;;;;5012683;28;20457;-69
2023/06/03 11:03:06;;;;;;;3.20;0.60;;;22.50;88.00;;;;;;5012927;28;20037;-69
2023/06/03 11:05:32;;;;;;;0.63;0.47;;;22.50;87.30;;;;;;5012884;28;20097;-70
2023/06/03 11:07:58;;;;;;;9.93;0.98;;;22.40;87.10;;;;;;5012464;28;20026;-68
2023/06/03 11:10:36;;;;;;;4.95;0.73;;;22.30;87.40;;;;;;5012907;28;20022;-69
2023/06/03 11:13:03;;;;;;;0.88;0.60;;;22.30;88.10;;;;;;4993232;28;20034;-69
2023/06/03 11:16:00;;;;;;;0.77;0.70;;;22.30;87.80;;;;;;5006332;28;20076;-68
2023/06/03 11:18:30;;;;;;;2.90;0.60;;;22.40;87.90;;;;;;5012371;28;20030;-69
2023/06/03 11:20:56;;;;;;;1.38;0.50;;;22.60;88.20;;;;;;5012650;28;20038;-69
2023/06/03 11:23:41;;;;;;;2.97;1.48;;;22.80;84.80;;;;;;5011903;28;20026;-70
2023/06/03 11:26:35;;;;;;;0.63;0.55;;;22.40;85.60;;;;;;5012787;28;20088;-68
2023/06/03 11:29:05;;;;;;;0.77;0.75;;;22.10;88.40;;;;;;5012242;28;20030;-69
2023/06/03 11:31:33;;;;;;;3.17;0.77;;;22.10;87.20;;;;;;5012376;28;20037;-69
2023/06/03 11:34:25;;;;;;;0.57;0.47;;;22.00;86.50;;;;;;5014936;28;20030;-68
2023/06/03 11:36:52;;;;;;;0.80;0.55;;;22.20;87.20;;;;;;5013485;28;20022;-69
2023/06/03 11:39:19;;;;;;;1.77;0.70;;;22.20;87.00;;;;;;5015991;28;20024;-68
2023/06/03 11:42:08;;;;;;;7.30;0.90;;;22.10;86.90;;;;;;5016025;28;20014;-69
2023/06/03 11:44:35;;;;;;;3.05;1.02;;;22.30;86.60;;;;;;5015737;28;20025;-70
2023/06/03 11:47:01;;;;;;;0.60;0.60;;;22.30;85.80;;;;;;5015534;28;20026;-70
2023/06/03 11:49:28;;;;;;;4.82;0.73;;;22.20;86.30;;;;;;5015869;28;20478;-69
2023/06/03 11:51:58;;;;;;;0.68;0.68;;;22.40;86.90;;;;;;5015229;28;20025;-70
2023/06/03 11:54:24;;;;;;;2.33;0.93;;;22.60;85.60;;;;;;5015956;28;20026;-70
2023/06/03 11:56:51;;;;;;;0.30;0.30;;;22.80;85.10;;;;;;5015126;28;20029;-69
2023/06/03 11:59:21;;;;;;;1.57;0.80;;;22.80;83.90;;;;;;5015963;28;20032;-68
2023/06/03 12:02:04;;;;;;;0.20;0.20;;;22.80;84.20;;;;;;5030300;28;20037;-69
2023/06/03 12:04:31;;;;;;;2.05;0.50;;;23.00;85.10;;;;;;5012684;28;20034;-70
2023/06/03 12:06:58;;;;;;;1.10;0.50;;;23.10;85.60;;;;;;5025769;28;20033;-70
2023/06/03 12:09:25;;;;;;;1.35;0.57;;;23.30;82.50;;;;;;5004536;28;20288;-70
2023/06/03 12:11:51;;;;;;;;;;;23.40;85.00;;;;;;4996242;28;20135;-70
2023/06/03 12:14:32;;;;;;;0.82;0.57;;;23.40;83.60;;;;;;5012261;28;20349;-69
2023/06/03 12:17:10;;;;;;;0.43;0.30;;;23.70;82.90;;;;;;5026405;28;20025;-70
2023/06/03 12:19:44;;;;;;;0.88;0.60;;;23.80;83.20;;;;;;5015463;28;20490;-70
2023/06/03 12:22:11;;;;;;;0.70;0.68;;;23.90;82.30;;;;;;5015493;28;20053;-69
2023/06/03 12:24:40;;;;;;;0.52;0.50;;;24.00;81.70;;;;;;5014925;28;20407;-70
2023/06/03 12:27:18;;;;;;;1.05;0.68;;;24.10;83.40;;;;;;5015406;28;20037;-71
2023/06/03 12:29:49;;;;;;;1.08;0.43;;;24.00;82.10;;;;;;5015328;28;20410;-71
2023/06/03 12:32:15;;;;;;;0.52;0.50;;;24.00;81.90;;;;;;5014532;28;20084;-70
2023/06/03 12:34:42;;;;;;;1.40;0.80;;;23.70;82.90;;;;;;5015127;28;20026;-69
2023/06/03 12:37:08;;;;;;;3.57;0.50;;;23.10;81.10;;;;;;5015205;28;20384;-69
2023/06/03 12:39:50;;;;;;;1.33;0.45;;;23.10;83.30;;;;;;5013879;28;20101;-68
2023/06/03 12:42:21;;;;;;;1.73;0.50;;;23.10;81.40;;;;;;5015095;28;20048;-69
2023/06/03 12:44:52;;;;;;;3.65;0.47;;;23.10;80.90;;;;;;5013900;28;20060;-68
2023/06/03 12:47:20;;;;;;;0.70;0.50;;;23.00;81.60;;;;;;5015058;28;20053;-69
2023/06/03 12:50:03;;;;;;;1.15;0.73;;;23.00;81.00;;;;;;5014326;28;20025;-68
2023/06/03 12:52:31;;;;;;;0.20;0.20;;;22.90;81.70;;;;;;5010278;28;20389;-68
2023/06/03 12:54:56;;;;;;;2.75;0.50;;;23.10;81.60;;;;;;5014554;28;20018;-68
2023/06/03 12:57:22;;;;;;;1.20;0.73;;;23.30;80.90;;;;;;5014123;28;20433;-69
2023/06/03 13:00:00;;;;;;;0.77;0.40;;;23.40;81.60;;;;;;5013672;28;20025;-69
2023/06/03 13:02:25;;;;;;;3.17;0.50;;;23.20;80.00;;;;;;5014685;28;20054;-69